sensor_id;sensor_type;location;lat;lon;timestamp;P1;durP1;ratioP1;P2;durP2;ratioP2
11653;SDS011;5883;48.818;9.114;2023-03-14T00:01:31;1.85;;;0.73;;
11653;SDS011;5883;48.818;9.114;2023-03-14T00:04:17;0.70;;;0.70;;
11653;SDS011;5883;48.818;9.114;2023-03-14T00:07:03;1.23;;;1.00;;
11653;SDS011;5883;48.818;9.114;2023-03-14T00:09:48;0.90;;;0.80;;
11653;SDS011;5883;48.818;9.114;2023-03-14T00:12:33;0.85;;;0.85;;
11653;SDS011;5883;48.818;9.114;2023-03-14T00:15:18;1.63;;;1.10;;
11653;SDS011;5883;48.818;9.114;2023-03-14T00:18:03;2.20;;;0.90;;
11653;SDS011;5883;48.818;9.114;2023-03-14T00:20:49;0.80;;;0.80;;
11653;SDS011;5883;48.818;9.114;2023-03-14T00:23:35;0.80;;;0.80;;
11653;SDS011;5883;48.818;9.114;2023-03-14T00:26:21;1.25;;;1.15;;
11653;SDS011;5883;48.818;9.114;2023-03-14T00:29:06;1.30;;;0.98;;
11653;SDS011;5883;48.818;9.114;2023-03-14T00:31:51;0.80;;;0.80;;
11653;SDS011;5883;48.818;9.114;2023-03-14T00:34:37;2.88;;;0.90;;
11653;SDS011;5883;48.818;9.114;2023-03-14T00:37:23;0.80;;;0.80;;
11653;SDS011;5883;48.818;9.114;2023-03-14T00:40:08;0.90;;;0.88;;
11653;SDS011;5883;48.818;9.114;2023-03-14T00:42:54;0.95;;;0.80;;
11653;SDS011;5883;48.818;9.114;2023-03-14T00:45:39;1.15;;;0.85;;
11653;SDS011;5883;48.818;9.114;2023-03-14T00:48:24;0.93;;;0.90;;
11653;SDS011;5883;48.818;9.114;2023-03-14T00:51:09;1.02;;;0.80;;
11653;SDS011;5883;48.818;9.114;2023-03-14T00:53:56;1.00;;;0.90;;
11653;SDS011;5883;48.818;9.114;2023-03-14T00:56:41;2.75;;;1.00;;
11653;SDS011;5883;48.818;9.114;2023-03-14T00:59:26;0.88;;;0.88;;
11653;SDS011;5883;48.818;9.114;2023-03-14T01:02:11;1.30;;;0.80;;
11653;SDS011;5883;48.818;9.114;2023-03-14T01:04:56;0.80;;;0.80;;
11653;SDS011;5883;48.818;9.114;2023-03-14T01:07:41;1.15;;;0.90;;
11653;SDS011;5883;48.818;9.114;2023-03-14T01:10:27;1.30;;;0.80;;
11653;SDS011;5883;48.818;9.114;2023-03-14T01:13:12;0.70;;;0.70;;
11653;SDS011;5883;48.818;9.114;2023-03-14T01:16:00;0.80;;;0.80;;
11653;SDS011;5883;48.818;9.114;2023-03-14T01:18:46;0.80;;;0.80;;
11653;SDS011;5883;48.818;9.114;2023-03-14T01:21:32;0.85;;;0.80;;
11653;SDS011;5883;48.818;9.114;2023-03-14T01:24:18;0.80;;;0.80;;
11653;SDS011;5883;48.818;9.114;2023-03-14T01:27:05;2.50;;;0.80;;
11653;SDS011;5883;48.818;9.114;2023-03-14T01:29:50;1.25;;;0.80;;
11653;SDS011;5883;48.818;9.114;2023-03-14T01:32:35;0.73;;;0.73;;
11653;SDS011;5883;48.818;9.114;2023-03-14T01:35:20;1.55;;;0.90;;
11653;SDS011;5883;48.818;9.114;2023-03-14T01:38:05;2.13;;;0.80;;
11653;SDS011;5883;48.818;9.114;2023-03-14T01:40:50;0.98;;;0.88;;
11653;SDS011;5883;48.818;9.114;2023-03-14T01:43:37;2.10;;;0.70;;
11653;SDS011;5883;48.818;9.114;2023-03-14T01:46:26;0.80;;;0.80;;
11653;SDS011;5883;48.818;9.114;2023-03-14T01:49:15;0.80;;;0.80;;
11653;SDS011;5883;48.818;9.114;2023-03-14T01:52:01;0.93;;;0.70;;
11653;SDS011;5883;48.818;9.114;2023-03-14T01:54:47;2.25;;;0.80;;
11653;SDS011;5883;48.818;9.114;2023-03-14T01:57:35;1.25;;;0.90;;
11653;SDS011;5883;48.818;9.114;2023-03-14T02:00:22;0.73;;;0.73;;
11653;SDS011;5883;48.818;9.114;2023-03-14T02:03:09;0.80;;;0.80;;
11653;SDS011;5883;48.818;9.114;2023-03-14T02:05:56;1.35;;;0.90;;
11653;SDS011;5883;48.818;9.114;2023-03-14T02:08:44;0.80;;;0.80;;
11653;SDS011;5883;48.818;9.114;2023-03-14T02:11:32;1.05;;;0.73;;
11653;SDS011;5883;48.818;9.114;2023-03-14T02:14:22;0.77;;;0.77;;
11653;SDS011;5883;48.818;9.114;2023-03-14T02:17:11;1.13;;;0.90;;
11653;SDS011;5883;48.818;9.114;2023-03-14T02:20:14;0.80;;;0.70;;
11653;SDS011;5883;48.818;9.114;2023-03-14T02:23:04;1.48;;;0.85;;
11653;SDS011;5883;48.818;9.114;2023-03-14T02:25:51;1.80;;;0.77;;
11653;SDS011;5883;48.818;9.114;2023-03-14T02:28:40;0.98;;;0.80;;
11653;SDS011;5883;48.818;9.114;2023-03-14T02:31:25;2.15;;;1.10;;
11653;SDS011;5883;48.818;9.114;2023-03-14T02:34:10;0.82;;;0.80;;
11653;SDS011;5883;48.818;9.114;2023-03-14T02:36:55;1.48;;;0.88;;
11653;SDS011;5883;48.818;9.114;2023-03-14T02:39:41;2.50;;;0.90;;
11653;SDS011;5883;48.818;9.114;2023-03-14T02:42:28;0.70;;;0.70;;
11653;SDS011;5883;48.818;9.114;2023-03-14T02:48:26;1.95;;;1.00;;
11653;SDS011;5883;48.818;9.114;2023-03-14T02:51:12;1.75;;;0.90;;
11653;SDS011;5883;48.818;9.114;2023-03-14T02:53:58;1.23;;;0.90;;
11653;SDS011;5883;48.818;9.114;2023-03-14T02:56:43;1.02;;;0.82;;
11653;SDS011;5883;48.818;9.114;2023-03-14T02:59:28;1.23;;;1.13;;
11653;SDS011;5883;48.818;9.114;2023-03-14T03:02:13;0.85;;;0.80;;
11653;SDS011;5883;48.818;9.114;2023-03-14T03:04:59;0.77;;;0.70;;
11653;SDS011;5883;48.818;9.114;2023-03-14T03:07:44;1.17;;;1.08;;
11653;SDS011;5883;48.818;9.114;2023-03-14T03:10:29;2.75;;;1.00;;
11653;SDS011;5883;48.818;9.114;2023-03-14T03:13:15;1.85;;;1.00;;
11653;SDS011;5883;48.818;9.114;2023-03-14T03:16:00;4.60;;;1.13;;
11653;SDS011;5883;48.818;9.114;2023-03-14T03:18:45;2.17;;;1.20;;
11653;SDS011;5883;48.818;9.114;2023-03-14T03:21:31;2.75;;;0.98;;
11653;SDS011;5883;48.818;9.114;2023-03-14T03:24:16;1.08;;;0.80;;
11653;SDS011;5883;48.818;9.114;2023-03-14T03:27:01;0.90;;;0.90;;
11653;SDS011;5883;48.818;9.114;2023-03-14T03:29:46;1.60;;;1.00;;
11653;SDS011;5883;48.818;9.114;2023-03-14T03:32:31;1.95;;;0.98;;
11653;SDS011;5883;48.818;9.114;2023-03-14T03:35:17;2.40;;;0.98;;
11653;SDS011;5883;48.818;9.114;2023-03-14T03:38:03;2.40;;;0.90;;
11653;SDS011;5883;48.818;9.114;2023-03-14T03:40:48;2.05;;;1.00;;
11653;SDS011;5883;48.818;9.114;2023-03-14T03:43:33;1.30;;;0.93;;
11653;SDS011;5883;48.818;9.114;2023-03-14T03:46:18;6.55;;;1.10;;
11653;SDS011;5883;48.818;9.114;2023-03-14T03:49:03;2.65;;;1.10;;
11653;SDS011;5883;48.818;9.114;2023-03-14T03:51:47;2.30;;;1.20;;
11653;SDS011;5883;48.818;9.114;2023-03-14T03:54:34;5.38;;;1.00;;
11653;SDS011;5883;48.818;9.114;2023-03-14T03:57:19;1.67;;;0.95;;
11653;SDS011;5883;48.818;9.114;2023-03-14T04:00:05;2.10;;;0.93;;
11653;SDS011;5883;48.818;9.114;2023-03-14T04:02:52;1.98;;;1.00;;
11653;SDS011;5883;48.818;9.114;2023-03-14T04:05:37;1.33;;;0.90;;
11653;SDS011;5883;48.818;9.114;2023-03-14T04:08:22;2.83;;;1.10;;
11653;SDS011;5883;48.818;9.114;2023-03-14T04:11:08;1.58;;;1.00;;
11653;SDS011;5883;48.818;9.114;2023-03-14T04:13:53;2.80;;;0.95;;
11653;SDS011;5883;48.818;9.114;2023-03-14T04:16:38;1.60;;;1.08;;
11653;SDS011;5883;48.818;9.114;2023-03-14T04:19:23;2.20;;;1.00;;
11653;SDS011;5883;48.818;9.114;2023-03-14T04:22:08;4.18;;;1.00;;
11653;SDS011;5883;48.818;9.114;2023-03-14T04:24:53;1.35;;;1.10;;
11653;SDS011;5883;48.818;9.114;2023-03-14T04:27:40;2.17;;;0.93;;
11653;SDS011;5883;48.818;9.114;2023-03-14T04:30:25;5.20;;;1.20;;
11653;SDS011;5883;48.818;9.114;2023-03-14T04:33:10;3.65;;;1.10;;
11653;SDS011;5883;48.818;9.114;2023-03-14T04:35:58;2.97;;;1.15;;
11653;SDS011;5883;48.818;9.114;2023-03-14T04:38:43;2.55;;;1.23;;
11653;SDS011;5883;48.818;9.114;2023-03-14T04:41:28;4.15;;;1.10;;
11653;SDS011;5883;48.818;9.114;2023-03-14T04:44:14;3.60;;;1.10;;
11653;SDS011;5883;48.818;9.114;2023-03-14T04:46:59;1.90;;;1.10;;
11653;SDS011;5883;48.818;9.114;2023-03-14T04:49:44;3.15;;;1.27;;
11653;SDS011;5883;48.818;9.114;2023-03-14T04:52:29;3.40;;;1.10;;
11653;SDS011;5883;48.818;9.114;2023-03-14T04:55:14;2.45;;;1.13;;
11653;SDS011;5883;48.818;9.114;2023-03-14T04:57:59;3.85;;;1.10;;
11653;SDS011;5883;48.818;9.114;2023-03-14T05:00:45;3.00;;;1.27;;
11653;SDS011;5883;48.818;9.114;2023-03-14T05:03:31;3.90;;;1.33;;
11653;SDS011;5883;48.818;9.114;2023-03-14T05:06:16;4.80;;;1.38;;
11653;SDS011;5883;48.818;9.114;2023-03-14T05:09:00;4.20;;;1.23;;
11653;SDS011;5883;48.818;9.114;2023-03-14T05:11:45;2.63;;;1.17;;
11653;SDS011;5883;48.818;9.114;2023-03-14T05:14:30;2.58;;;1.13;;
11653;SDS011;5883;48.818;9.114;2023-03-14T05:17:16;3.38;;;1.40;;
11653;SDS011;5883;48.818;9.114;2023-03-14T05:20:02;4.13;;;1.20;;
11653;SDS011;5883;48.818;9.114;2023-03-14T05:22:51;2.10;;;1.00;;
11653;SDS011;5883;48.818;9.114;2023-03-14T05:25:36;4.03;;;1.30;;
11653;SDS011;5883;48.818;9.114;2023-03-14T05:28:21;3.65;;;0.98;;
11653;SDS011;5883;48.818;9.114;2023-03-14T05:31:06;2.67;;;0.90;;
11653;SDS011;5883;48.818;9.114;2023-03-14T05:33:53;1.77;;;1.02;;
11653;SDS011;5883;48.818;9.114;2023-03-14T05:36:38;1.48;;;1.10;;
11653;SDS011;5883;48.818;9.114;2023-03-14T05:39:23;3.10;;;1.00;;
11653;SDS011;5883;48.818;9.114;2023-03-14T05:42:09;2.28;;;1.02;;
11653;SDS011;5883;48.818;9.114;2023-03-14T05:44:54;2.83;;;1.30;;
11653;SDS011;5883;48.818;9.114;2023-03-14T05:47:39;5.95;;;1.40;;
11653;SDS011;5883;48.818;9.114;2023-03-14T05:50:25;7.22;;;1.48;;
11653;SDS011;5883;48.818;9.114;2023-03-14T05:53:10;2.13;;;0.90;;
11653;SDS011;5883;48.818;9.114;2023-03-14T05:55:55;1.70;;;1.00;;
11653;SDS011;5883;48.818;9.114;2023-03-14T05:58:41;1.42;;;0.93;;
11653;SDS011;5883;48.818;9.114;2023-03-14T06:01:25;4.35;;;1.45;;
11653;SDS011;5883;48.818;9.114;2023-03-14T06:04:10;4.80;;;1.10;;
11653;SDS011;5883;48.818;9.114;2023-03-14T06:06:58;2.78;;;0.90;;
11653;SDS011;5883;48.818;9.114;2023-03-14T06:09:43;1.98;;;1.10;;
11653;SDS011;5883;48.818;9.114;2023-03-14T06:12:28;2.83;;;0.93;;
11653;SDS011;5883;48.818;9.114;2023-03-14T06:15:13;3.33;;;0.90;;
11653;SDS011;5883;48.818;9.114;2023-03-14T06:17:58;3.58;;;1.05;;
11653;SDS011;5883;48.818;9.114;2023-03-14T06:20:42;2.60;;;1.17;;
11653;SDS011;5883;48.818;9.114;2023-03-14T06:23:29;5.43;;;1.30;;
11653;SDS011;5883;48.818;9.114;2023-03-14T06:26:15;2.20;;;1.20;;
11653;SDS011;5883;48.818;9.114;2023-03-14T06:29:00;1.73;;;1.00;;
11653;SDS011;5883;48.818;9.114;2023-03-14T06:31:47;4.18;;;1.20;;
11653;SDS011;5883;48.818;9.114;2023-03-14T06:34:32;1.30;;;0.80;;
11653;SDS011;5883;48.818;9.114;2023-03-14T06:37:17;0.98;;;0.90;;
11653;SDS011;5883;48.818;9.114;2023-03-14T06:40:03;1.60;;;0.98;;
11653;SDS011;5883;48.818;9.114;2023-03-14T06:42:48;2.13;;;1.10;;
11653;SDS011;5883;48.818;9.114;2023-03-14T06:45:34;2.08;;;1.10;;
11653;SDS011;5883;48.818;9.114;2023-03-14T06:48:19;2.15;;;1.00;;
11653;SDS011;5883;48.818;9.114;2023-03-14T06:51:04;5.70;;;1.42;;
11653;SDS011;5883;48.818;9.114;2023-03-14T06:53:50;1.17;;;0.90;;
11653;SDS011;5883;48.818;9.114;2023-03-14T06:56:36;3.35;;;1.00;;
11653;SDS011;5883;48.818;9.114;2023-03-14T06:59:21;2.35;;;1.10;;
11653;SDS011;5883;48.818;9.114;2023-03-14T07:02:07;2.70;;;1.00;;
11653;SDS011;5883;48.818;9.114;2023-03-14T07:04:52;2.67;;;0.90;;
11653;SDS011;5883;48.818;9.114;2023-03-14T07:07:37;2.13;;;0.90;;
11653;SDS011;5883;48.818;9.114;2023-03-14T07:10:22;3.85;;;1.25;;
11653;SDS011;5883;48.818;9.114;2023-03-14T07:13:08;1.20;;;1.00;;
11653;SDS011;5883;48.818;9.114;2023-03-14T07:15:54;3.53;;;0.90;;
11653;SDS011;5883;48.818;9.114;2023-03-14T07:18:39;1.52;;;0.80;;
11653;SDS011;5883;48.818;9.114;2023-03-14T07:21:24;2.47;;;0.73;;
11653;SDS011;5883;48.818;9.114;2023-03-14T07:24:09;1.83;;;0.70;;
11653;SDS011;5883;48.818;9.114;2023-03-14T07:26:54;2.63;;;0.70;;
11653;SDS011;5883;48.818;9.114;2023-03-14T07:29:41;1.33;;;0.70;;
11653;SDS011;5883;48.818;9.114;2023-03-14T07:32:26;1.02;;;0.70;;
11653;SDS011;5883;48.818;9.114;2023-03-14T07:35:11;1.25;;;0.88;;
11653;SDS011;5883;48.818;9.114;2023-03-14T07:37:56;2.92;;;0.82;;
11653;SDS011;5883;48.818;9.114;2023-03-14T07:40:41;1.33;;;0.70;;
11653;SDS011;5883;48.818;9.114;2023-03-14T07:43:26;0.82;;;0.43;;
11653;SDS011;5883;48.818;9.114;2023-03-14T07:46:12;0.50;;;0.40;;
11653;SDS011;5883;48.818;9.114;2023-03-14T07:48:57;0.40;;;0.30;;
11653;SDS011;5883;48.818;9.114;2023-03-14T07:51:47;0.90;;;0.60;;
11653;SDS011;5883;48.818;9.114;2023-03-14T07:54:32;1.38;;;0.50;;
11653;SDS011;5883;48.818;9.114;2023-03-14T07:57:16;1.48;;;0.50;;
11653;SDS011;5883;48.818;9.114;2023-03-14T08:00:01;2.38;;;0.60;;
11653;SDS011;5883;48.818;9.114;2023-03-14T08:02:50;1.85;;;0.60;;
11653;SDS011;5883;48.818;9.114;2023-03-14T08:05:35;0.70;;;0.47;;
11653;SDS011;5883;48.818;9.114;2023-03-14T08:08:20;4.13;;;0.68;;
11653;SDS011;5883;48.818;9.114;2023-03-14T08:11:06;1.08;;;0.68;;
11653;SDS011;5883;48.818;9.114;2023-03-14T08:13:52;0.60;;;0.50;;
11653;SDS011;5883;48.818;9.114;2023-03-14T08:16:37;6.72;;;0.60;;
11653;SDS011;5883;48.818;9.114;2023-03-14T08:19:23;0.93;;;0.50;;
11653;SDS011;5883;48.818;9.114;2023-03-14T08:22:08;2.17;;;0.50;;
11653;SDS011;5883;48.818;9.114;2023-03-14T08:24:53;2.47;;;0.65;;
11653;SDS011;5883;48.818;9.114;2023-03-14T08:27:38;1.33;;;0.60;;
11653;SDS011;5883;48.818;9.114;2023-03-14T08:30:24;1.45;;;0.70;;
11653;SDS011;5883;48.818;9.114;2023-03-14T08:33:09;1.10;;;0.80;;
11653;SDS011;5883;48.818;9.114;2023-03-14T08:35:57;0.77;;;0.50;;
11653;SDS011;5883;48.818;9.114;2023-03-14T08:38:42;1.73;;;0.80;;
11653;SDS011;5883;48.818;9.114;2023-03-14T08:41:27;0.70;;;0.60;;
11653;SDS011;5883;48.818;9.114;2023-03-14T08:44:12;0.73;;;0.70;;
11653;SDS011;5883;48.818;9.114;2023-03-14T08:46:57;1.58;;;0.70;;
11653;SDS011;5883;48.818;9.114;2023-03-14T08:49:42;1.50;;;0.77;;
11653;SDS011;5883;48.818;9.114;2023-03-14T08:52:29;1.63;;;0.90;;
11653;SDS011;5883;48.818;9.114;2023-03-14T08:55:15;1.38;;;0.70;;
11653;SDS011;5883;48.818;9.114;2023-03-14T08:57:59;2.38;;;0.68;;
11653;SDS011;5883;48.818;9.114;2023-03-14T09:00:44;1.58;;;0.70;;
11653;SDS011;5883;48.818;9.114;2023-03-14T09:03:29;1.75;;;0.75;;
11653;SDS011;5883;48.818;9.114;2023-03-14T09:06:14;0.60;;;0.60;;
11653;SDS011;5883;48.818;9.114;2023-03-14T09:09:03;1.48;;;0.70;;
11653;SDS011;5883;48.818;9.114;2023-03-14T09:11:48;0.88;;;0.70;;
11653;SDS011;5883;48.818;9.114;2023-03-14T09:14:33;0.80;;;0.70;;
11653;SDS011;5883;48.818;9.114;2023-03-14T09:17:19;0.95;;;0.73;;
11653;SDS011;5883;48.818;9.114;2023-03-14T09:20:04;0.70;;;0.60;;
11653;SDS011;5883;48.818;9.114;2023-03-14T09:22:52;2.38;;;0.85;;
11653;SDS011;5883;48.818;9.114;2023-03-14T09:25:38;0.88;;;0.70;;
11653;SDS011;5883;48.818;9.114;2023-03-14T09:28:24;0.80;;;0.80;;
11653;SDS011;5883;48.818;9.114;2023-03-14T09:31:10;1.67;;;0.90;;
11653;SDS011;5883;48.818;9.114;2023-03-14T09:33:55;1.73;;;1.20;;
11653;SDS011;5883;48.818;9.114;2023-03-14T09:36:40;3.05;;;0.77;;
11653;SDS011;5883;48.818;9.114;2023-03-14T09:39:30;0.70;;;0.70;;
11653;SDS011;5883;48.818;9.114;2023-03-14T09:42:17;1.85;;;0.70;;
11653;SDS011;5883;48.818;9.114;2023-03-14T09:45:03;0.70;;;0.70;;
11653;SDS011;5883;48.818;9.114;2023-03-14T09:47:50;0.60;;;0.60;;
11653;SDS011;5883;48.818;9.114;2023-03-14T09:50:36;0.82;;;0.70;;
11653;SDS011;5883;48.818;9.114;2023-03-14T09:53:24;0.85;;;0.68;;
11653;SDS011;5883;48.818;9.114;2023-03-14T09:56:12;0.60;;;0.60;;
11653;SDS011;5883;48.818;9.114;2023-03-14T09:59:00;0.57;;;0.57;;
11653;SDS011;5883;48.818;9.114;2023-03-14T10:01:45;0.75;;;0.70;;
11653;SDS011;5883;48.818;9.114;2023-03-14T10:04:30;0.70;;;0.70;;
11653;SDS011;5883;48.818;9.114;2023-03-14T10:07:17;0.60;;;0.60;;
11653;SDS011;5883;48.818;9.114;2023-03-14T10:10:08;0.60;;;0.60;;
11653;SDS011;5883;48.818;9.114;2023-03-14T10:12:55;0.85;;;0.70;;
11653;SDS011;5883;48.818;9.114;2023-03-14T10:15:42;1.17;;;0.63;;
11653;SDS011;5883;48.818;9.114;2023-03-14T10:18:31;0.70;;;0.70;;
11653;SDS011;5883;48.818;9.114;2023-03-14T10:21:28;0.95;;;0.60;;
11653;SDS011;5883;48.818;9.114;2023-03-14T10:24:18;0.75;;;0.70;;
11653;SDS011;5883;48.818;9.114;2023-03-14T10:27:05;1.60;;;0.80;;
11653;SDS011;5883;48.818;9.114;2023-03-14T10:29:53;0.80;;;0.80;;
11653;SDS011;5883;48.818;9.114;2023-03-14T10:32:42;0.80;;;0.80;;
11653;SDS011;5883;48.818;9.114;2023-03-14T10:35:30;1.05;;;0.68;;
11653;SDS011;5883;48.818;9.114;2023-03-14T10:38:18;0.90;;;0.70;;
11653;SDS011;5883;48.818;9.114;2023-03-14T10:41:13;1.15;;;0.60;;
11653;SDS011;5883;48.818;9.114;2023-03-14T10:43:59;0.60;;;0.60;;
11653;SDS011;5883;48.818;9.114;2023-03-14T10:46:45;0.60;;;0.60;;
11653;SDS011;5883;48.818;9.114;2023-03-14T10:49:34;0.70;;;0.70;;
11653;SDS011;5883;48.818;9.114;2023-03-14T10:52:20;0.70;;;0.70;;
11653;SDS011;5883;48.818;9.114;2023-03-14T10:55:09;1.08;;;0.80;;
11653;SDS011;5883;48.818;9.114;2023-03-14T10:57:55;1.75;;;0.80;;
11653;SDS011;5883;48.818;9.114;2023-03-14T11:00:40;5.05;;;0.70;;
11653;SDS011;5883;48.818;9.114;2023-03-14T11:03:25;0.65;;;0.65;;
11653;SDS011;5883;48.818;9.114;2023-03-14T11:06:13;0.70;;;0.70;;
11653;SDS011;5883;48.818;9.114;2023-03-14T11:09:00;1.40;;;0.80;;
11653;SDS011;5883;48.818;9.114;2023-03-14T11:11:49;1.02;;;0.80;;
11653;SDS011;5883;48.818;9.114;2023-03-14T11:14:34;1.05;;;0.73;;
11653;SDS011;5883;48.818;9.114;2023-03-14T11:17:22;0.82;;;0.70;;
11653;SDS011;5883;48.818;9.114;2023-03-14T11:20:17;0.70;;;0.70;;
11653;SDS011;5883;48.818;9.114;2023-03-14T11:23:11;0.70;;;0.70;;
11653;SDS011;5883;48.818;9.114;2023-03-14T11:25:58;1.35;;;0.80;;
11653;SDS011;5883;48.818;9.114;2023-03-14T11:28:45;0.80;;;0.80;;
11653;SDS011;5883;48.818;9.114;2023-03-14T11:31:32;1.33;;;0.98;;
11653;SDS011;5883;48.818;9.114;2023-03-14T11:34:22;1.10;;;0.88;;
11653;SDS011;5883;48.818;9.114;2023-03-14T11:37:11;0.95;;;0.70;;
11653;SDS011;5883;48.818;9.114;2023-03-14T11:40:02;0.60;;;0.60;;
11653;SDS011;5883;48.818;9.114;2023-03-14T11:42:53;0.70;;;0.70;;
11653;SDS011;5883;48.818;9.114;2023-03-14T11:45:41;0.77;;;0.60;;
11653;SDS011;5883;48.818;9.114;2023-03-14T11:48:29;0.70;;;0.70;;
11653;SDS011;5883;48.818;9.114;2023-03-14T11:51:20;0.70;;;0.70;;
11653;SDS011;5883;48.818;9.114;2023-03-14T11:54:10;0.90;;;0.90;;
11653;SDS011;5883;48.818;9.114;2023-03-14T11:56:59;0.68;;;0.68;;
11653;SDS011;5883;48.818;9.114;2023-03-14T11:59:47;0.70;;;0.60;;
11653;SDS011;5883;48.818;9.114;2023-03-14T12:02:35;0.80;;;0.80;;
11653;SDS011;5883;48.818;9.114;2023-03-14T12:05:30;0.70;;;0.70;;
11653;SDS011;5883;48.818;9.114;2023-03-14T12:08:22;0.70;;;0.70;;
11653;SDS011;5883;48.818;9.114;2023-03-14T12:11:12;0.60;;;0.60;;
11653;SDS011;5883;48.818;9.114;2023-03-14T12:14:00;1.40;;;0.70;;
11653;SDS011;5883;48.818;9.114;2023-03-14T12:16:46;0.60;;;0.60;;
11653;SDS011;5883;48.818;9.114;2023-03-14T12:19:33;0.63;;;0.63;;
11653;SDS011;5883;48.818;9.114;2023-03-14T12:22:21;0.80;;;0.80;;
11653;SDS011;5883;48.818;9.114;2023-03-14T12:25:13;0.90;;;0.73;;
11653;SDS011;5883;48.818;9.114;2023-03-14T12:28:04;0.70;;;0.70;;
11653;SDS011;5883;48.818;9.114;2023-03-14T12:30:51;0.70;;;0.70;;
11653;SDS011;5883;48.818;9.114;2023-03-14T12:33:36;0.70;;;0.70;;
11653;SDS011;5883;48.818;9.114;2023-03-14T12:36:44;0.85;;;0.80;;
11653;SDS011;5883;48.818;9.114;2023-03-14T12:39:35;1.10;;;0.90;;
11653;SDS011;5883;48.818;9.114;2023-03-14T12:42:35;1.30;;;1.00;;
11653;SDS011;5883;48.818;9.114;2023-03-14T12:45:24;1.10;;;0.90;;
11653;SDS011;5883;48.818;9.114;2023-03-14T12:48:14;2.13;;;1.20;;
11653;SDS011;5883;48.818;9.114;2023-03-14T12:51:02;1.15;;;1.00;;
11653;SDS011;5883;48.818;9.114;2023-03-14T12:54:09;0.90;;;0.80;;
11653;SDS011;5883;48.818;9.114;2023-03-14T13:00:00;3.80;;;1.00;;
11653;SDS011;5883;48.818;9.114;2023-03-14T13:02:45;1.80;;;1.00;;
11653;SDS011;5883;48.818;9.114;2023-03-14T13:05:33;1.15;;;1.00;;
11653;SDS011;5883;48.818;9.114;2023-03-14T13:08:32;1.20;;;0.85;;
11653;SDS011;5883;48.818;9.114;2023-03-14T13:11:18;3.55;;;1.00;;
11653;SDS011;5883;48.818;9.114;2023-03-14T13:14:07;2.20;;;1.00;;
11653;SDS011;5883;48.818;9.114;2023-03-14T13:16:53;3.38;;;1.00;;
11653;SDS011;5883;48.818;9.114;2023-03-14T13:19:38;1.92;;;0.95;;
11653;SDS011;5883;48.818;9.114;2023-03-14T13:22:25;1.25;;;1.10;;
11653;SDS011;5883;48.818;9.114;2023-03-14T13:25:11;1.80;;;1.00;;
11653;SDS011;5883;48.818;9.114;2023-03-14T13:27:56;1.58;;;0.98;;
11653;SDS011;5883;48.818;9.114;2023-03-14T13:30:43;1.58;;;1.10;;
11653;SDS011;5883;48.818;9.114;2023-03-14T13:33:28;2.40;;;1.15;;
11653;SDS011;5883;48.818;9.114;2023-03-14T13:36:13;1.33;;;0.90;;
11653;SDS011;5883;48.818;9.114;2023-03-14T13:39:12;1.10;;;0.95;;
11653;SDS011;5883;48.818;9.114;2023-03-14T13:41:58;1.00;;;0.90;;
11653;SDS011;5883;48.818;9.114;2023-03-14T13:44:43;0.80;;;0.80;;
11653;SDS011;5883;48.818;9.114;2023-03-14T13:47:29;1.02;;;0.80;;
11653;SDS011;5883;48.818;9.114;2023-03-14T13:50:15;1.27;;;1.02;;
11653;SDS011;5883;48.818;9.114;2023-03-14T13:53:01;1.15;;;0.90;;
11653;SDS011;5883;48.818;9.114;2023-03-14T13:55:48;1.63;;;0.85;;
11653;SDS011;5883;48.818;9.114;2023-03-14T13:58:33;1.92;;;1.00;;
11653;SDS011;5883;48.818;9.114;2023-03-14T14:01:22;4.18;;;1.08;;
11653;SDS011;5883;48.818;9.114;2023-03-14T14:04:08;1.17;;;1.00;;
11653;SDS011;5883;48.818;9.114;2023-03-14T14:06:54;1.30;;;0.95;;
11653;SDS011;5883;48.818;9.114;2023-03-14T14:09:41;1.20;;;0.90;;
11653;SDS011;5883;48.818;9.114;2023-03-14T14:12:29;2.75;;;1.40;;
11653;SDS011;5883;48.818;9.114;2023-03-14T14:15:16;4.07;;;0.95;;
11653;SDS011;5883;48.818;9.114;2023-03-14T14:18:04;1.42;;;1.10;;
11653;SDS011;5883;48.818;9.114;2023-03-14T14:20:49;1.42;;;1.00;;
11653;SDS011;5883;48.818;9.114;2023-03-14T14:23:35;1.45;;;0.90;;
11653;SDS011;5883;48.818;9.114;2023-03-14T14:26:20;1.90;;;0.90;;
11653;SDS011;5883;48.818;9.114;2023-03-14T14:29:18;1.48;;;0.90;;
11653;SDS011;5883;48.818;9.114;2023-03-14T14:32:10;2.40;;;0.90;;
11653;SDS011;5883;48.818;9.114;2023-03-14T14:34:56;2.78;;;0.98;;
11653;SDS011;5883;48.818;9.114;2023-03-14T14:37:42;4.13;;;0.90;;
11653;SDS011;5883;48.818;9.114;2023-03-14T14:40:28;2.20;;;0.95;;
11653;SDS011;5883;48.818;9.114;2023-03-14T14:43:15;4.10;;;1.20;;
11653;SDS011;5883;48.818;9.114;2023-03-14T14:46:05;3.10;;;1.10;;
11653;SDS011;5883;48.818;9.114;2023-03-14T14:48:54;1.67;;;1.08;;
11653;SDS011;5883;48.818;9.114;2023-03-14T14:51:41;1.83;;;1.10;;
11653;SDS011;5883;48.818;9.114;2023-03-14T14:54:32;2.13;;;1.08;;
11653;SDS011;5883;48.818;9.114;2023-03-14T14:57:18;1.42;;;1.10;;
11653;SDS011;5883;48.818;9.114;2023-03-14T15:00:04;1.42;;;1.17;;
11653;SDS011;5883;48.818;9.114;2023-03-14T15:02:58;5.00;;;1.10;;
11653;SDS011;5883;48.818;9.114;2023-03-14T15:05:43;3.92;;;1.50;;
11653;SDS011;5883;48.818;9.114;2023-03-14T15:08:29;2.97;;;1.00;;
11653;SDS011;5883;48.818;9.114;2023-03-14T15:11:15;5.35;;;1.20;;
11653;SDS011;5883;48.818;9.114;2023-03-14T15:14:01;2.88;;;1.17;;
11653;SDS011;5883;48.818;9.114;2023-03-14T15:16:47;4.47;;;1.58;;
11653;SDS011;5883;48.818;9.114;2023-03-14T15:19:33;1.80;;;1.20;;
11653;SDS011;5883;48.818;9.114;2023-03-14T15:22:18;2.63;;;1.27;;
11653;SDS011;5883;48.818;9.114;2023-03-14T15:25:04;3.53;;;0.98;;
11653;SDS011;5883;48.818;9.114;2023-03-14T15:27:49;4.95;;;1.40;;
11653;SDS011;5883;48.818;9.114;2023-03-14T15:30:34;1.95;;;1.30;;
11653;SDS011;5883;48.818;9.114;2023-03-14T15:33:19;2.80;;;1.20;;
11653;SDS011;5883;48.818;9.114;2023-03-14T15:36:10;3.30;;;1.05;;
11653;SDS011;5883;48.818;9.114;2023-03-14T15:39:01;2.95;;;1.13;;
11653;SDS011;5883;48.818;9.114;2023-03-14T15:41:47;3.50;;;1.15;;
11653;SDS011;5883;48.818;9.114;2023-03-14T15:44:32;1.70;;;1.10;;
11653;SDS011;5883;48.818;9.114;2023-03-14T15:47:17;4.35;;;1.30;;
11653;SDS011;5883;48.818;9.114;2023-03-14T15:50:02;1.95;;;1.00;;
11653;SDS011;5883;48.818;9.114;2023-03-14T15:52:49;3.08;;;1.25;;
11653;SDS011;5883;48.818;9.114;2023-03-14T15:55:34;3.08;;;1.20;;
11653;SDS011;5883;48.818;9.114;2023-03-14T15:58:19;3.97;;;1.17;;
11653;SDS011;5883;48.818;9.114;2023-03-14T16:01:05;3.13;;;1.65;;
11653;SDS011;5883;48.818;9.114;2023-03-14T16:03:52;2.70;;;1.30;;
11653;SDS011;5883;48.818;9.114;2023-03-14T16:06:37;2.67;;;1.13;;
11653;SDS011;5883;48.818;9.114;2023-03-14T16:09:23;5.15;;;1.33;;
11653;SDS011;5883;48.818;9.114;2023-03-14T16:12:09;2.78;;;1.60;;
11653;SDS011;5883;48.818;9.114;2023-03-14T16:14:54;2.05;;;1.30;;
11653;SDS011;5883;48.818;9.114;2023-03-14T16:17:39;3.85;;;1.20;;
11653;SDS011;5883;48.818;9.114;2023-03-14T16:20:26;3.17;;;1.10;;
11653;SDS011;5883;48.818;9.114;2023-03-14T16:23:12;3.78;;;1.40;;
11653;SDS011;5883;48.818;9.114;2023-03-14T16:26:02;3.03;;;1.33;;
11653;SDS011;5883;48.818;9.114;2023-03-14T16:28:47;2.25;;;1.10;;
11653;SDS011;5883;48.818;9.114;2023-03-14T16:31:32;3.00;;;1.70;;
11653;SDS011;5883;48.818;9.114;2023-03-14T16:34:17;4.75;;;1.67;;
11653;SDS011;5883;48.818;9.114;2023-03-14T16:37:02;6.43;;;1.45;;
11653;SDS011;5883;48.818;9.114;2023-03-14T16:39:47;3.25;;;1.83;;
11653;SDS011;5883;48.818;9.114;2023-03-14T16:42:34;3.92;;;1.90;;
11653;SDS011;5883;48.818;9.114;2023-03-14T16:45:19;2.03;;;1.30;;
11653;SDS011;5883;48.818;9.114;2023-03-14T16:48:04;5.35;;;1.50;;
11653;SDS011;5883;48.818;9.114;2023-03-14T16:50:50;6.15;;;1.40;;
11653;SDS011;5883;48.818;9.114;2023-03-14T16:53:35;3.22;;;1.60;;
11653;SDS011;5883;48.818;9.114;2023-03-14T16:56:20;3.05;;;1.13;;
11653;SDS011;5883;48.818;9.114;2023-03-14T16:59:07;2.13;;;1.40;;
11653;SDS011;5883;48.818;9.114;2023-03-14T17:01:52;2.22;;;1.20;;
11653;SDS011;5883;48.818;9.114;2023-03-14T17:04:39;5.13;;;1.40;;